Terminal Aerodrome Forecast
Issued by NWS Amarillo, TX

Current Version | Previous Version | Text Only | Print | Product List | Glossary On
Versions: 1 2 3 4 5 6 7 8 9 10 11 12 13
000
FTUS44 KAMA 211700
TAFAMA
TAF
KAMA 211727Z 2118/2218 19016G23KT P6SM SCT130
     FM212200 18018G25KT P6SM VCTS BKN080CB
     FM220100 19014KT P6SM SCT150
     FM221500 20016G22KT P6SM SKC=

USA.gov is the U.S. government's official web portal to all federal, state and local government web resources and services.